Pathhead, United Kingdom
Current Conditions -  °F | °C
As of 12:20 AM on Tuesday 25 Nov 2014 (Local Time) from EGPH Reporting Station
Broken Clouds Broken Clouds  
Wind Chill:   Ceiling: 1300
Heat Index:   Visibility: 6mi
Dew Point:   Wind: 10mph
Humidity: 87%   Direction: 220°SW
Pressure: 30.24"   Gusts: NA
Location:  55.86°N, 2.97°W
Report Text: EGPH 250020Z 22009KT 9999 BKN013 BKN030 07/05 Q1024
Loading
Personal Weather Stations






























Interactive Weather Map New forecast layout! Learn more

10-Day Weather Forecast

Advertisements
Track Severe Weather on mobile